createdAt,value
2023-04-30T00:00:02.596Z,1018.3
2023-04-30T00:15:03.179Z,1018.5
2023-04-30T00:30:02.503Z,1018.6
2023-04-30T00:45:03.133Z,1018.7
2023-04-30T01:00:02.376Z,1018.8
2023-04-30T01:15:02.790Z,1018.8
2023-04-30T01:30:02.211Z,1018.7
2023-04-30T01:45:02.640Z,1018.8
2023-04-30T02:00:03.200Z,1018.9
2023-04-30T02:15:02.518Z,1018.9
2023-04-30T02:30:03.158Z,1019.1
2023-04-30T02:45:02.446Z,1019.2
2023-04-30T03:00:02.824Z,1019.2
2023-04-30T03:15:03.277Z,1019.1
2023-04-30T03:30:02.705Z,1019.2
2023-04-30T03:45:03.192Z,1019.2
2023-04-30T04:00:02.582Z,1019.2
2023-04-30T04:15:03.224Z,1019.2
2023-04-30T04:45:02.898Z,1019.5
2023-04-30T05:00:02.338Z,1019.5
2023-04-30T05:15:02.798Z,1019.6
2023-04-30T05:30:02.240Z,1019.6
2023-04-30T05:45:02.683Z,1019.6
2023-04-30T06:00:03.241Z,1019.7
2023-04-30T06:15:02.622Z,1019.7
2023-04-30T06:30:03.250Z,1019.7
2023-04-30T06:45:02.491Z,1019.9
2023-04-30T07:00:02.989Z,1019.7
2023-04-30T07:15:02.379Z,1019.8
2023-04-30T07:30:02.827Z,1020.0
2023-04-30T07:45:02.280Z,1019.9
2023-04-30T08:00:02.719Z,1019.9
2023-04-30T08:15:03.271Z,1020.0
2023-04-30T08:30:02.591Z,1020.0
2023-04-30T08:45:03.254Z,1019.9
2023-04-30T09:00:02.518Z,1019.8
2023-04-30T09:15:02.934Z,1019.8
2023-04-30T09:30:02.367Z,1019.8
2023-04-30T09:45:02.822Z,1019.7
2023-04-30T10:00:03.286Z,1019.7
2023-04-30T10:15:02.720Z,1019.5
2023-04-30T10:30:02.258Z,1019.3
2023-04-30T10:45:02.574Z,1019.3
2023-04-30T11:00:03.209Z,1019.2
2023-04-30T11:15:02.515Z,1019.2
2023-04-30T11:30:02.900Z,1019.0
2023-04-30T11:45:02.322Z,1018.8
2023-04-30T12:00:02.753Z,1018.7
2023-04-30T12:15:03.300Z,1018.6
2023-04-30T12:30:02.648Z,1018.5
2023-04-30T12:45:03.295Z,1018.4
2023-04-30T13:00:02.575Z,1018.2
2023-04-30T13:15:02.940Z,1018.0
2023-04-30T13:30:02.320Z,1017.8
2023-04-30T13:45:02.774Z,1017.7
2023-04-30T14:00:03.497Z,1017.6
2023-04-30T14:15:02.646Z,1017.5
2023-04-30T14:30:03.106Z,1017.5
2023-04-30T14:45:02.469Z,1017.3
2023-04-30T15:00:02.883Z,1017.2
2023-04-30T15:15:02.354Z,1017.2
2023-04-30T15:30:02.759Z,1016.9
2023-04-30T15:45:03.326Z,1016.9
2023-04-30T16:00:02.622Z,1016.8
2023-04-30T16:15:03.062Z,1016.7
2023-04-30T16:30:02.485Z,1016.5
2023-04-30T16:45:02.908Z,1016.4
2023-04-30T17:00:02.361Z,1016.3
2023-04-30T17:15:02.772Z,1016.3
2023-04-30T17:30:02.351Z,1016.2
2023-04-30T17:45:02.714Z,1016.1
2023-04-30T18:00:03.293Z,1016.0
2023-04-30T18:15:02.540Z,1016.0
2023-04-30T18:30:02.979Z,1015.9
2023-04-30T18:45:02.404Z,1015.9
2023-04-30T19:00:02.841Z,1015.9
2023-04-30T19:15:02.372Z,1015.9
2023-04-30T19:30:02.724Z,1015.9
2023-04-30T19:45:03.385Z,1016.1
2023-04-30T20:00:02.620Z,1016.0
2023-04-30T20:15:03.053Z,1015.9
2023-04-30T20:30:02.445Z,1015.6
2023-04-30T20:45:05.458Z,1015.7
2023-04-30T21:00:02.393Z,1015.6
2023-04-30T21:15:02.816Z,1015.5
2023-04-30T21:30:02.427Z,1015.4
2023-04-30T21:45:02.674Z,1015.3
2023-04-30T22:00:03.119Z,1015.1
2023-04-30T22:15:02.572Z,1015.0
2023-04-30T22:30:01.974Z,1014.8
2023-04-30T22:45:02.432Z,1014.8
2023-04-30T23:00:02.844Z,1014.7
2023-04-30T23:15:02.389Z,1014.6
2023-04-30T23:30:02.758Z,1014.5
2023-04-30T23:45:03.367Z,1014.4
